• Join FlightAware (Why Join?)
  • Login
  • US Flag 
08:32AM EDT


 

Airport Tracker/Info


-or-


 

Live Flight TrackerFlight Track Log ✈ UPS2950 ✈ 15-May-2013 ✈ KSDF - KOAK

Flight Track Log - Related Links

Times and Time Zones

All times are in EDT time to prevent confusion due to time zone crossing. See the UPS2950 flight status page for this flight to view local times or setup timezone preferences in your user account.

Time Position Orientation Groundspeed Altitude Reporting Facility
EDT Latitude Longitude Course Direction KTS MPH feet Rate Location/Type
03:54PM 38.1590 -85.7400 163° South 160 184 1,000  Level FlightAware
03:55PM 38.1370 -85.7330 166° South 182 209 1,900 1,920 Climbing FlightAware
03:55PM 38.1150 -85.7330 180° South 212 244 2,800 2,220 Climbing FlightAware
03:55PM 38.0990 -85.7360 188° South 230 265 3,400 2,400 Climbing FlightAware
03:55PM 38.0870 -85.7470 216° Southwest 243 280 4,000 3,000 Climbing FlightAware
03:56PM 38.0780 -85.7670 240° Southwest 250 288 4,900 3,420 Climbing FlightAware
03:56PM 38.0700 -85.8020 254° West 261 300 6,300 3,660 Climbing FlightAware
03:57PM 38.0670 -85.8480 265° West 260 299 8,300 3,600 Climbing FlightAware
03:57PM 38.0650 -85.8860 266° West 262 302 9,600 1,620 Climbing FlightAware
03:58PM 38.0610 -85.9330 264° West 261 300 9,800 300 Climbing FlightAware
03:58PM 38.0580 -85.9790 265° West 264 304 9,900 720 Climbing FlightAware
03:59PM 38.0550 -86.0390 266° West 312 359 10,600 1,560 Climbing FlightAware
03:59PM 38.0490 -86.1280 265° West 361 415 12,000 1,920 Climbing FlightAware
04:00PM 38.0420 -86.2260 265° West 397 457 13,500 2,100 Climbing FlightAware
04:01PM 38.0350 -86.3250 265° West 420 483 15,000 2,460 Climbing FlightAware
04:02PM 38.0280 -86.4370 265° West 433 498 17,000 2,460 Climbing FlightAware
04:02PM 38.0190 -86.5710 265° West 449 517 19,100 2,160 Climbing FlightAware
04:03PM 38.0100 -86.6830 264° West 465 535 20,500 2,100 Climbing FlightAware
04:04PM 38.0010 -86.8060 265° West 474 545 22,100 2,040 Climbing FlightAware
04:05PM 37.9930 -86.9210 265° West 485 558 23,400 1,800 Climbing FlightAware
04:05PM 37.9850 -87.0350 265° West 497 572 24,500 2,160 Climbing FlightAware
04:06PM 37.9750 -87.1690 265° West 493 567 26,500 2,820 Climbing FlightAware
04:07PM 37.9660 -87.2800 264° West 477 549 28,500 3,720 Climbing FlightAware
04:07PM 37.9570 -87.3870 264° West 439 505 31,500 3,120 Climbing FlightAware
04:08PM 37.9490 -87.4990 265° West 424 488 33,000 1,020 Climbing FlightAware
04:09PM 37.9410 -87.5920 264° West 419 482 33,000  Level FlightAware
04:09PM 37.9340 -87.6950 265° West 419 482 33,000  Level FlightAware
04:10PM 37.9460 -87.8060 278° West 419 482 33,000  Level FlightAware
04:11PM 37.9770 -87.8960 294° West 418 481 33,000 660 Level FlightAware
04:12PM 38.0110 -87.9940 294° West 411 473 34,000 1,380 Climbing FlightAware
04:12PM 38.0420 -88.0820 294° West 413 475 35,000 1,260 Climbing FlightAware
04:13PM 38.0780 -88.1820 295° West 417 480 35,800 660 Climbing FlightAware
04:14PM 38.1090 -88.2690 294° West 420 483 36,000 120 Climbing FlightAware
04:14PM 38.1450 -88.3740 294° West 424 488 36,000  Level FlightAware
04:15PM 38.1770 -88.4620 295° West 419 482 36,000  Level FlightAware
04:16PM 38.2080 -88.5520 294° West 418 481 36,000  Level FlightAware
04:16PM 38.2450 -88.6580 294° West 421 484 36,000  Level FlightAware
04:17PM 38.2750 -88.7440 294° West 421 484 36,000 60 Level FlightAware
04:18PM 38.3060 -88.8340 294° West 420 483 36,100 60 Climbing FlightAware
04:19PM 38.3410 -88.9340 294° West 419 482 36,100 -120 Level FlightAware
04:19PM 38.3730 -89.0290 293° West 418 481 36,000 -120 Descending FlightAware
04:20PM 38.4070 -89.1280 294° West 416 479 36,000  Level FlightAware
04:21PM 38.4340 -89.2060 294° West 416 479 36,000  Level FlightAware
04:22PM 38.4790 -89.3390 293° West 415 478 36,000  Level FlightAware
04:22PM 38.5160 -89.4470 294° West 414 476 36,000  Level FlightAware
04:23PM 38.5420 -89.5230 294° West 413 475 36,000  Level FlightAware
04:24PM 38.5690 -89.6040 293° West 413 475 36,000  Level FlightAware
04:24PM 38.6100 -89.7240 294° West 413 475 36,000  Level FlightAware
04:25PM 38.6390 -89.8120 293° West 412 474 36,000  Level FlightAware
04:26PM 38.6730 -89.9130 293° West 412 474 36,000  Level FlightAware
04:26PM 38.7010 -89.9960 293° West 411 473 36,000  Level FlightAware
04:27PM 38.7430 -90.1250 293° West 411 473 36,000  Level FlightAware
04:28PM 38.7770 -90.2260 293° West 411 473 36,000  Level FlightAware
04:29PM 38.8060 -90.3140 293° West 411 473 36,000  Level FlightAware
04:29PM 38.8360 -90.4060 293° West 412 474 36,000  Level FlightAware
04:30PM 38.8640 -90.5090 289° West 408 470 36,000  Level FlightAware
04:31PM 38.8750 -90.6050 278° West 409 471 36,000  Level FlightAware
04:32PM 38.8870 -90.7040 279° West 412 474 36,000  Level FlightAware
04:32PM 38.9010 -90.8310 278° West 415 478 36,000  Level FlightAware
04:33PM 38.9100 -90.9140 278° West 415 478 36,000  Level FlightAware
04:34PM 38.9220 -91.0180 278° West 415 478 36,000  Level FlightAware
04:35PM 38.9310 -91.1010 278° West 415 478 36,000 60 Level FlightAware
04:35PM 38.9520 -91.2720 279° West 421 484 36,100  Climbing FlightAware
04:36PM 38.9670 -91.4050 278° West 420 483 36,000 -120 Descending FlightAware
04:37PM 38.9750 -91.4870 277° West 420 483 36,000  Level FlightAware
04:38PM 38.9850 -91.5860 277° West 420 483 36,000  Level FlightAware
04:38PM 38.9990 -91.7060 279° West 418 481 36,000  Level FlightAware
04:39PM 39.0090 -91.8020 278° West 418 481 36,000  Level FlightAware
04:40PM 39.0170 -91.8860 277° West 418 481 36,000  Level FlightAware
04:40PM 39.0250 -91.9700 277° West 418 481 36,000  Level FlightAware
04:41PM 39.0350 -92.0750 277° West 418 481 36,000  Level FlightAware
04:42PM 39.0430 -92.1590 277° West 418 481 36,000  Level FlightAware
04:43PM 39.0510 -92.2430 277° West 418 481 36,000  Level FlightAware
04:43PM 39.0590 -92.3270 277° West 418 481 36,000  Level FlightAware
04:44PM 39.0670 -92.4110 277° West 418 481 36,000  Level FlightAware
04:45PM 39.0770 -92.5160 277° West 418 481 36,000  Level FlightAware
04:45PM 39.0850 -92.6010 277° West 418 481 36,000  Level FlightAware
04:46PM 39.1180 -92.8650 279° West 431 496 36,000  Level FlightAware
04:47PM 39.1300 -92.9840 277° West 432 497 36,000  Level FlightAware
04:47PM 39.1370 -93.0580 277° West 432 497 36,000  Level FlightAware
04:48PM 39.1470 -93.1600 277° West 434 499 36,000  Level FlightAware
04:49PM 39.1560 -93.2660 276° West 435 501 36,000  Level FlightAware
04:49PM 39.1670 -93.3820 277° West 439 505 36,000 60 Level FlightAware
04:50PM 39.1770 -93.4860 277° West 442 509 36,100 60 Climbing FlightAware
04:51PM 39.1880 -93.6040 277° West 445 512 36,100  Level FlightAware
04:51PM 39.1970 -93.7070 276° West 444 511 36,100  Level FlightAware
04:52PM 39.2070 -93.8120 277° West 443 510 36,100  Level FlightAware
04:53PM 39.2170 -93.9320 276° West 440 506 36,100 -120 Level FlightAware
04:54PM 39.2260 -94.0360 276° West 438 504 36,000 -120 Descending FlightAware
04:54PM 39.2360 -94.1500 276° West 436 502 36,000  Level FlightAware
04:55PM 39.2450 -94.2540 276° West 438 504 36,000  Level FlightAware
04:56PM 39.2540 -94.3610 276° West 441 507 36,000  Level FlightAware
04:56PM 39.2640 -94.4790 276° West 446 513 36,000 60 Level FlightAware
04:57PM 39.2730 -94.5880 276° West 448 516 36,100 900 Climbing FlightAware
04:58PM 39.2820 -94.7040 276° West 441 507 37,300 1,320 Climbing FlightAware
04:58PM 39.2900 -94.8080 276° West 439 505 38,000 480 Climbing FlightAware
04:59PM 39.2980 -94.9260 275° West 440 506 38,000  Level FlightAware
05:00PM 39.3040 -95.0310 274° West 446 513 38,000  Level FlightAware
05:01PM 39.3110 -95.1400 275° West 444 511 38,000  Level FlightAware
05:01PM 39.3170 -95.2430 274° West 443 510 38,000  Level FlightAware
05:02PM 39.3240 -95.3610 274° West 445 512 38,000  Level FlightAware
05:03PM 39.3330 -95.5080 275° West 449 517 38,000 60 Level FlightAware
05:03PM 39.3380 -95.5990 274° West 448 516 38,100 60 Climbing FlightAware
05:04PM 39.3460 -95.7320 274° West 446 513 38,100 -120 Level FlightAware
05:05PM 39.3520 -95.8380 274° West 448 516 38,000 -120 Descending FlightAware
05:06PM 39.3580 -95.9580 274° West 450 518 38,000  Level FlightAware
05:06PM 39.3630 -96.0470 274° West 450 518 38,000  Level FlightAware
05:07PM 39.3700 -96.1750 274° West 451 519 38,000 60 Level FlightAware
05:08PM 39.3760 -96.2940 274° West 453 521 38,100 60 Climbing FlightAware
05:08PM 39.3820 -96.4020 274° West 453 521 38,100  Level FlightAware
05:09PM 39.3870 -96.5130 273° West 455 524 38,100 -120 Level FlightAware
05:10PM 39.3930 -96.6350 274° West 456 525 38,000 -120 Descending FlightAware
05:10PM 39.3980 -96.7310 274° West 458 527 38,000  Level FlightAware
05:11PM 39.4040 -96.8560 274° West 458 527 38,000  Level FlightAware
05:12PM 39.4090 -96.9740 273° West 459 528 38,000  Level FlightAware
05:13PM 39.4150 -97.1150 273° West 459 528 38,000  Level FlightAware
05:14PM 39.4190 -97.2080 273° West 459 528 38,000  Level FlightAware
05:14PM 39.4230 -97.3010 273° West 459 528 38,000  Level FlightAware
05:15PM 39.4310 -97.4950 273° West 469 540 38,000  Level FlightAware
05:16PM 39.4380 -97.6380 274° West 474 545 38,000 60 Level FlightAware
05:17PM 39.4420 -97.7550 273° West 477 549 38,100 60 Climbing FlightAware
05:17PM 39.4470 -97.8660 273° West 479 551 38,100  Level FlightAware
05:18PM 39.4510 -98.0030 272° West 481 554 38,100  Level FlightAware
05:19PM 39.4550 -98.1260 272° West 481 554 38,100  Level FlightAware
05:20PM 39.4620 -98.2740 274° West 488 562 38,100  Level FlightAware
05:21PM 39.4660 -98.4290 272° West 489 563 38,100  Level FlightAware
05:21PM 39.4690 -98.5280 272° West 489 563 38,100  Level FlightAware
05:22PM 39.4720 -98.6280 272° West 489 563 38,100  Level FlightAware
05:23PM 39.4750 -98.7520 272° West 489 563 38,100  Level FlightAware
05:23PM 39.4780 -98.8520 272° West 489 563 38,100  Level FlightAware
05:24PM 39.4800 -98.9510 272° West 489 563 38,100  Level FlightAware
05:25PM 39.4830 -99.0510 272° West 489 563 38,100  Level FlightAware
05:25PM 39.4860 -99.1510 272° West 489 563 38,100  Level FlightAware
05:26PM 39.4890 -99.2750 272° West 489 563 38,100  Level FlightAware
05:27PM 39.4920 -99.3750 272° West 489 563 38,100  Level FlightAware
05:28PM 39.4940 -99.4740 272° West 489 563 38,100  Level FlightAware
05:28PM 39.4970 -99.5740 272° West 489 563 38,100  Level FlightAware
05:29PM 39.5000 -99.6740 272° West 489 563 38,100  Level FlightAware
05:30PM 39.5030 -99.7980 272° West 489 563 38,100 -60 Level FlightAware
05:31PM 39.5114 -100.1744 272° West 479 551 38,000 -60 Descending Denver Center
05:36PM 39.5260 -101.1650 272° West 468 539 38,000  Level FlightAware ADS-B
05:37PM 39.5267 -101.2520 271° West 468 539 38,000  Level FlightAware ADS-B
05:37PM 39.5273 -101.3360 271° West 467 537 38,000  Level FlightAware ADS-B
05:38PM 39.5278 -101.4250 270° West 467 537 38,000  Level FlightAware ADS-B
05:39PM 39.5282 -101.5220 270° West 467 537 38,000  Level FlightAware ADS-B
05:39PM 39.5289 -101.6090 271° West 467 537 38,000  Level FlightAware ADS-B
05:40PM 39.5294 -101.6980 270° West 468 539 38,000 60 Level FlightAware ADS-B
05:40PM 39.5299 -101.7820 270° West 468 539 38,100 60 Climbing FlightAware ADS-B
05:41PM 39.5300 -101.8660 270° West 469 540 38,100  Level FlightAware ADS-B
05:41PM 39.5303 -101.9530 270° West 469 540 38,100  Level FlightAware ADS-B
05:42PM 39.5305 -102.0380 270° West 469 540 38,100  Level FlightAware ADS-B
05:42PM 39.5307 -102.1220 270° West 469 540 38,100  Level FlightAware ADS-B
05:43PM 39.5308 -102.2030 270° West 469 540 38,100  Level FlightAware ADS-B
05:43PM 39.5309 -102.2930 270° West 468 539 38,100  Level FlightAware ADS-B
05:44PM 39.5308 -102.3820 270° West 467 537 38,100 -120 Level FlightAware ADS-B
05:44PM 39.5306 -102.4660 270° West 467 537 38,000  Descending FlightAware ADS-B
05:45PM 39.5305 -102.5550 270° West 465 535 38,100  Climbing FlightAware ADS-B
05:45PM 39.5304 -102.6410 270° West 465 535 38,000 -120 Descending FlightAware ADS-B
05:46PM 39.5300 -102.7270 270° West 464 534 38,000  Level FlightAware ADS-B
05:46PM 39.5295 -102.8160 270° West 463 533 38,000  Level FlightAware ADS-B
05:47PM 39.5290 -102.9010 270° West 462 532 38,000  Level FlightAware ADS-B
05:47PM 39.5286 -102.9870 270° West 461 531 38,000  Level FlightAware ADS-B
05:48PM 39.5282 -103.0730 270° West 461 531 38,000  Level FlightAware ADS-B
05:48PM 39.5276 -103.1580 270° West 460 529 38,000  Level FlightAware ADS-B
05:49PM 39.5271 -103.2400 270° West 459 528 38,000  Level FlightAware ADS-B
05:49PM 39.5264 -103.3220 269° West 458 527 38,000  Level FlightAware ADS-B
05:50PM 39.5256 -103.4070 269° West 457 526 38,000  Level FlightAware ADS-B
05:50PM 39.5248 -103.4920 269° West 456 525 38,000  Level FlightAware ADS-B
05:51PM 39.5236 -103.5740 269° West 455 524 38,000  Level FlightAware ADS-B
05:51PM 39.5225 -103.6580 269° West 454 522 38,000 60 Level FlightAware ADS-B
05:52PM 39.5213 -103.7420 269° West 453 521 38,100 60 Climbing FlightAware ADS-B
05:52PM 39.5202 -103.8230 269° West 452 520 38,100  Level FlightAware ADS-B
05:53PM 39.5192 -103.8930 269° West 451 519 38,100  Level FlightAware ADS-B
05:53PM 39.5190 -103.9170 269° West 451 519 38,100 -180 Level FlightAware ADS-B
05:54PM 39.5183 -103.9790 269° West 451 519 38,000 -120 Descending FlightAware ADS-B
05:54PM 39.5164 -104.1080 269° West 450 518 38,000  Level FlightAware ADS-B
05:55PM 39.5152 -104.1890 269° West 449 517 38,000  Level FlightAware ADS-B
05:55PM 39.5137 -104.2700 269° West 449 517 38,000  Level FlightAware ADS-B
05:56PM 39.5124 -104.3530 269° West 449 517 38,000  Level FlightAware ADS-B
05:56PM 39.5107 -104.4390 269° West 449 517 38,000  Level FlightAware ADS-B
05:57PM 39.5092 -104.5220 269° West 451 519 38,000  Level FlightAware ADS-B
05:57PM 39.5077 -104.6060 269° West 452 520 38,000 60 Level FlightAware ADS-B
05:58PM 39.5060 -104.6900 269° West 453 521 38,100 60 Climbing FlightAware ADS-B
05:58PM 39.5042 -104.7710 268° West 453 521 38,100  Level FlightAware ADS-B
05:59PM 39.5024 -104.8570 268° West 452 520 38,100 -120 Level FlightAware ADS-B
05:59PM 39.5006 -104.9380 268° West 448 516 38,000 -120 Descending FlightAware ADS-B
06:00PM 39.4986 -105.0190 268° West 451 519 38,000  Level FlightAware ADS-B
06:01PM 39.4960 -105.1300 268° West 455 524 38,000  Level FlightAware ADS-B
06:01PM 39.4939 -105.2140 268° West 458 527 38,000 60 Level FlightAware ADS-B
06:02PM 39.4919 -105.2970 268° West 460 529 38,100 60 Climbing FlightAware ADS-B
06:02PM 39.4897 -105.3790 268° West 463 533 38,100  Level FlightAware ADS-B
06:03PM 39.4869 -105.4760 268° West 464 534 38,100  Level FlightAware ADS-B
06:03PM 39.4847 -105.5600 268° West 464 534 38,100  Level FlightAware ADS-B
06:04PM 39.4820 -105.6560 268° West 462 532 38,100 -120 Level FlightAware ADS-B
06:04PM 39.4793 -105.7420 268° West 460 529 38,000 -120 Descending FlightAware ADS-B
06:05PM 39.4767 -105.8240 268° West 459 528 38,000  Level FlightAware ADS-B
06:05PM 39.4742 -105.9090 268° West 457 526 38,000  Level FlightAware ADS-B
06:06PM 39.4715 -105.9910 268° West 456 525 38,000  Level FlightAware ADS-B
06:06PM 39.4690 -106.0720 268° West 455 524 38,000  Level FlightAware ADS-B
06:07PM 39.4665 -106.1540 268° West 455 524 38,000  Level FlightAware ADS-B
06:07PM 39.4639 -106.2350 268° West 455 524 38,000  Level FlightAware ADS-B
06:08PM 39.4609 -106.3200 267° West 457 526 38,000  Level FlightAware ADS-B
06:08PM 39.4579 -106.4050 267° West 460 529 38,000 60 Level FlightAware ADS-B
06:09PM 39.4547 -106.4870 267° West 461 531 38,100 60 Climbing FlightAware ADS-B
06:09PM 39.4513 -106.5720 267° West 461 531 38,100  Level FlightAware ADS-B
06:10PM 39.4479 -106.6600 267° West 463 533 38,100  Level FlightAware ADS-B
06:10PM 39.4448 -106.7430 267° West 462 532 38,100  Level FlightAware ADS-B
06:11PM 39.4414 -106.8340 267° West 463 533 38,100  Level FlightAware ADS-B
06:11PM 39.4384 -106.9170 267° West 463 533 38,100 -120 Level FlightAware ADS-B
06:12PM 39.4381 -107.0060 270° West 465 535 38,000 -120 Descending FlightAware ADS-B
06:12PM 39.4385 -107.0920 270° West 465 535 38,000  Level FlightAware ADS-B
06:13PM 39.4389 -107.1810 270° West 464 534 38,000  Level FlightAware ADS-B
06:13PM 39.4388 -107.2660 270° West 462 532 38,000  Level FlightAware ADS-B
06:14PM 39.4385 -107.3550 270° West 463 533 38,000  Level FlightAware ADS-B
06:15PM 39.4380 -107.4430 270° West 464 534 38,000  Level FlightAware ADS-B
06:15PM 39.4376 -107.5290 270° West 465 535 38,000  Level FlightAware ADS-B
06:16PM 39.4370 -107.6570 270° West 467 537 38,000  Level FlightAware
06:17PM 39.4360 -107.7710 269° West 467 537 38,000  Level FlightAware
06:17PM 39.4350 -107.8780 269° West 469 540 38,000 60 Level FlightAware
06:18PM 39.4340 -107.9920 269° West 469 540 38,100 60 Climbing FlightAware
06:19PM 39.4320 -108.1190 269° West 473 544 38,100 -120 Level FlightAware
06:19PM 39.4290 -108.2490 268° West 473 544 38,000 -120 Descending FlightAware
06:20PM 39.4060 -108.3480 253° West 469 540 38,000 60 Level FlightAware
06:21PM 39.3740 -108.4610 250° West 468 539 38,100  Climbing FlightAware
06:22PM 39.3700 -108.6550 269° West 476 548 38,100  Level FlightAware
06:23PM 39.3720 -108.7960 271° West 468 539 38,100  Level FlightAware
06:24PM 39.3570 -108.9310 262° West 465 535 38,100 -120 Level FlightAware
06:24PM 39.3460 -109.0320 262° West 463 533 38,000 -120 Descending FlightAware
06:25PM 39.3320 -109.1580 262° West 463 533 38,000  Level FlightAware
06:26PM 39.3180 -109.2780 261° West 461 531 38,000  Level FlightAware
06:26PM 39.3060 -109.3750 261° West 460 529 38,000  Level FlightAware
06:27PM 39.2920 -109.4980 262° West 460 529 38,000  Level FlightAware
06:29PM 39.2510 -109.8400 261° West 460 529 38,100  Climbing FlightAware
06:30PM 39.2370 -109.9540 261° West 462 532 38,100  Level FlightAware
06:30PM 39.2240 -110.0600 261° West 464 534 38,100  Level FlightAware
06:31PM 39.2100 -110.1750 261° West 464 534 38,100  Level FlightAware
06:32PM 39.1940 -110.3090 261° West 466 536 38,100  Level FlightAware
06:33PM 39.1800 -110.4150 260° West 465 535 38,100  Level FlightAware
06:34PM 39.1470 -110.6750 261° West 465 535 38,100  Level FlightAware
06:35PM 39.1270 -110.8260 260° West 465 535 38,100 -60 Level FlightAware
06:36PM 39.1090 -110.9650 261° West 467 537 38,000 -120 Descending FlightAware
06:37PM 39.0970 -111.0600 261° West 466 536 38,000  Level FlightAware
06:37PM 39.0800 -111.1890 260° West 465 535 38,000  Level FlightAware
06:38PM 39.0640 -111.3080 260° West 463 533 38,000  Level FlightAware
06:39PM 39.0490 -111.4190 260° West 462 532 38,000  Level FlightAware
06:39PM 39.0370 -111.5060 260° West 461 531 38,000  Level FlightAware
06:40PM 39.0220 -111.6160 260° West 461 531 38,000  Level FlightAware
06:41PM 39.0090 -111.7080 260° West 461 531 38,000  Level FlightAware
06:41PM 38.9890 -111.8570 260° West 463 533 38,000  Level FlightAware
06:42PM 38.9760 -111.9490 260° West 463 533 38,000  Level FlightAware
06:43PM 38.9600 -112.0650 260° West 463 533 38,000  Level FlightAware
06:44PM 38.9480 -112.1570 261° West 463 533 38,000  Level FlightAware
06:44PM 38.9350 -112.2490 260° West 463 533 38,000  Level FlightAware
06:45PM 38.9220 -112.3410 260° West 463 533 38,000  Level FlightAware
06:46PM 38.9100 -112.4330 261° West 463 533 38,000  Level FlightAware
06:46PM 38.8940 -112.5490 260° West 463 533 38,000  Level FlightAware
06:47PM 38.8810 -112.6410 260° West 463 533 38,000  Level FlightAware
06:48PM 38.8690 -112.7330 261° West 463 533 38,000  Level FlightAware
06:48PM 38.8560 -112.8250 260° West 463 533 38,000  Level FlightAware
06:49PM 38.8430 -112.9170 260° West 463 533 38,000  Level FlightAware
06:50PM 38.8270 -113.0320 260° West 463 533 38,000  Level FlightAware
06:51PM 38.8150 -113.1240 261° West 463 533 38,000  Level FlightAware
06:51PM 38.7631 -113.4036 261° West 437 503 38,000  Level Salt Lake Center
06:52PM 38.7386 -113.5592 259° West 444 511 38,000  Level Salt Lake Center
06:53PM 38.7156 -113.7133 259° West 445 512 38,000  Level Salt Lake Center
06:54PM 38.6900 -113.8675 258° West 445 512 38,000  Level Salt Lake Center
06:55PM 38.6661 -114.0228 259° West 448 516 38,100  Climbing Salt Lake Center
06:56PM 38.6353 -114.2122 258° West 455 524 38,100  Level Salt Lake Center
06:57PM 38.6106 -114.3678 259° West 450 518 38,100  Level Salt Lake Center
06:59PM 38.5850 -114.5231 258° West 449 517 38,100 -60 Level Salt Lake Center
07:00PM 38.5597 -114.6778 258° West 447 514 38,000 -60 Descending Salt Lake Center
07:01PM 38.5333 -114.8314 258° West 446 513 38,000  Level Salt Lake Center
07:02PM 38.5075 -114.9861 258° West 447 514 38,000  Level Salt Lake Center
07:03PM 38.4817 -115.1383 258° West 442 509 38,000  Level Salt Lake Center
07:04PM 38.4506 -115.3217 258° West 442 509 38,000  Level Salt Lake Center
07:05PM 38.4250 -115.4739 258° West 443 510 38,000  Level Salt Lake Center
07:06PM 38.3989 -115.6256 258° West 439 505 38,100  Climbing Salt Lake Center
07:07PM 38.3717 -115.7769 257° West 440 506 38,000 -60 Descending Salt Lake Center
07:08PM 38.3447 -115.9289 257° West 440 506 38,000  Level Salt Lake Center
07:09PM 38.3175 -116.0811 257° West 440 506 38,100  Climbing Salt Lake Center
07:10PM 38.2903 -116.2319 257° West 438 504 38,100  Level Salt Lake Center
07:11PM 38.2578 -116.4147 257° West 441 507 38,100 -60 Level Salt Lake Center
07:12PM 38.2406 -116.5056 256° West 440 506 38,000 -60 Descending Oakland Center
07:13PM 38.2131 -116.6575 257° West 442 509 38,000  Level Oakland Center
07:14PM 38.1856 -116.8097 257° West 441 507 38,100  Climbing Oakland Center
07:15PM 38.1569 -116.9608 257° West 440 506 38,000 -120 Descending Oakland Center
07:15PM 38.1458 -117.0217 257° West 440 506 38,000  Level Salt Lake Center
07:16PM 38.1167 -117.1792 257° West 443 510 38,000  Level Salt Lake Center
07:17PM 38.0956 -117.2800 255° West 451 519 38,100 60 Climbing Oakland Center
07:18PM 38.0678 -117.4336 257° West 447 514 38,100 -60 Level Oakland Center
07:19PM 38.0389 -117.5864 257° West 446 513 38,000  Descending Oakland Center
07:20PM 38.0094 -117.7372 256° West 442 509 38,100  Climbing Oakland Center
07:21PM 37.9994 -117.8928 265° West 444 511 38,000 -60 Descending Oakland Center
07:22PM 37.9933 -118.0469 267° West 439 505 38,000  Level Oakland Center
07:23PM 37.9856 -118.2317 267° West 437 503 38,000  Level Oakland Center
07:28PM 37.9490 -119.0870 267° West 424 488 38,000  Level FlightAware
07:29PM 37.9430 -119.2080 266° West 418 481 38,000  Level FlightAware
07:30PM 37.9390 -119.3070 267° West 432 497 38,000  Level FlightAware
07:30PM 37.9350 -119.3970 267° West 445 512 38,000  Level FlightAware
07:31PM 37.9280 -119.5310 266° West 446 513 38,000  Level FlightAware
07:32PM 37.9230 -119.6310 266° West 438 504 38,000  Level FlightAware
07:33PM 37.9160 -119.7510 266° West 437 503 38,000  Level FlightAware
07:33PM 37.9120 -119.8350 267° West 436 502 38,000 -120 Level FlightAware
07:34PM 37.9060 -119.9520 266° West 430 495 37,900 -1,080 Descending FlightAware
07:35PM 37.8990 -120.0640 266° West 425 489 36,400 -2,580 Descending FlightAware
07:35PM 37.8950 -120.1510 267° West 432 497 34,500 -3,360 Descending FlightAware
07:36PM 37.8880 -120.2790 266° West 441 507 31,700 -3,540 Descending FlightAware
07:37PM 37.8820 -120.3830 266° West 443 510 29,200 -3,000 Descending FlightAware
07:38PM 37.8760 -120.4840 266° West 426 490 27,700 -2,280 Descending FlightAware
07:38PM 37.8700 -120.5890 266° West 408 470 26,000 -2,880 Descending FlightAware
07:39PM 37.8640 -120.6850 266° West 400 460 23,700 -3,180 Descending FlightAware
07:40PM 37.8580 -120.7800 265° West 395 455 21,800 -2,580 Descending FlightAware
07:40PM 37.8510 -120.8820 265° West 383 441 20,100 -2,340 Descending FlightAware
07:41PM 37.8460 -120.9730 266° West 369 425 18,500 -2,700 Descending FlightAware
07:42PM 37.8410 -121.0650 266° West 359 413 16,300 -3,180 Descending FlightAware
07:42PM 37.8360 -121.1450 265° West 351 404 14,000 -3,000 Descending FlightAware
07:43PM 37.8100 -121.2350 250° West 347 399 12,100 -1,740 Descending FlightAware
07:44PM 37.7860 -121.3050 247° West 318 366 11,600 -900 Descending FlightAware
07:45PM 37.7620 -121.3710 245° Southwest 292 336 10,900 -960 Descending FlightAware
07:45PM 37.7380 -121.4380 246° West 271 312 10,300 -900 Descending FlightAware
07:46PM 37.7250 -121.4740 245° Southwest 270 311 9,900 -900 Descending FlightAware
07:46PM 37.7100 -121.5180 247° West 275 316 9,500 -840 Descending FlightAware
07:47PM 37.6940 -121.5630 246° West 266 306 9,100 -900 Descending FlightAware
07:47PM 37.6820 -121.5970 246° West 271 312 8,700 -1,020 Descending FlightAware
07:48PM 37.6730 -121.6440 256° West 273 314 8,200 -1,020 Descending FlightAware
07:48PM 37.6700 -121.6830 264° West 264 304 7,800 -1,020 Descending FlightAware
07:49PM 37.6630 -121.7300 259° West 266 306 7,300 -1,200 Descending FlightAware
07:49PM 37.6570 -121.7760 261° West 268 308 6,600 -1,440 Descending FlightAware
07:49PM 37.6530 -121.8130 262° West 267 307 6,000 -1,440 Descending FlightAware
07:50PM 37.6480 -121.8580 262° West 265 305 5,300 -1,440 Descending FlightAware
07:50PM 37.6430 -121.8990 261° West 262 302 4,700 -1,500 Descending FlightAware
07:51PM 37.6410 -121.9190 263° West 263 303 4,300 -1,500 Descending FlightAware
07:51PM 37.6350 -121.9640 260° West 257 296 3,600 -1,560 Descending FlightAware
07:52PM 37.6300 -122.0030 261° West 243 280 2,900 -1,200 Descending FlightAware
07:52PM 37.6250 -122.0410 261° West 214 246 2,500 -540 Descending FlightAware
07:53PM 37.6200 -122.0770 260° West 195 224 2,400 -240 Descending FlightAware
07:53PM 37.6250 -122.0990 286° West 170 196 2,300 -780 Descending FlightAware
07:53PM 37.6400 -122.1220 309° West 154 177 1,700 -1,020 Descending FlightAware
07:54PM 37.6520 -122.1400 310° West 144 166 1,400 -660 Descending FlightAware
07:54PM 37.6640 -122.1580 310° West 140 161 1,100 -720 Descending FlightAware
07:55PM 37.6770 -122.1770 311° West 139 160 700 -780 Descending FlightAware
07:55PM 37.6870 -122.1920 310° West 138 159 400 -720 Descending FlightAware
07:56PM 37.6990 -122.2110 309° West 136 157 -840 Descending FlightAware